sensor_id;sensor_type;location;lat;lon;timestamp;temperature;humidity
48936;DHT22;34745;52.276;10.528;2023-03-31T00:02:14;11.10;99.90
48936;DHT22;34745;52.276;10.528;2023-03-31T00:04:41;11.10;99.90
48936;DHT22;34745;52.276;10.528;2023-03-31T00:07:20;11.10;99.90
48936;DHT22;34745;52.276;10.528;2023-03-31T00:09:50;11.00;99.90
48936;DHT22;34745;52.276;10.528;2023-03-31T00:12:32;11.00;99.90
48936;DHT22;34745;52.276;10.528;2023-03-31T00:14:59;11.00;99.90
48936;DHT22;34745;52.276;10.528;2023-03-31T00:17:27;11.00;99.90
48936;DHT22;34745;52.276;10.528;2023-03-31T00:19:54;11.00;99.90
48936;DHT22;34745;52.276;10.528;2023-03-31T00:22:27;11.00;99.90
48936;DHT22;34745;52.276;10.528;2023-03-31T00:24:54;11.10;99.90
48936;DHT22;34745;52.276;10.528;2023-03-31T00:27:21;11.10;99.90
48936;DHT22;34745;52.276;10.528;2023-03-31T00:29:48;11.10;99.90
48936;DHT22;34745;52.276;10.528;2023-03-31T00:32:16;11.10;99.90
48936;DHT22;34745;52.276;10.528;2023-03-31T00:34:44;11.20;99.90
48936;DHT22;34745;52.276;10.528;2023-03-31T00:37:12;11.20;99.90
48936;DHT22;34745;52.276;10.528;2023-03-31T00:39:41;11.30;99.90
48936;DHT22;34745;52.276;10.528;2023-03-31T00:42:09;11.30;99.90
48936;DHT22;34745;52.276;10.528;2023-03-31T00:47:47;11.30;99.90
48936;DHT22;34745;52.276;10.528;2023-03-31T00:50:19;11.30;99.90
48936;DHT22;34745;52.276;10.528;2023-03-31T00:52:50;11.40;99.90
48936;DHT22;34745;52.276;10.528;2023-03-31T00:55:23;11.40;99.90
48936;DHT22;34745;52.276;10.528;2023-03-31T00:57:52;11.40;99.90
48936;DHT22;34745;52.276;10.528;2023-03-31T01:00:20;11.40;99.90
48936;DHT22;34745;52.276;10.528;2023-03-31T01:02:54;11.40;99.90
48936;DHT22;34745;52.276;10.528;2023-03-31T01:05:28;11.40;99.90
48936;DHT22;34745;52.276;10.528;2023-03-31T01:07:58;11.40;99.90
48936;DHT22;34745;52.276;10.528;2023-03-31T01:10:26;11.50;99.90
48936;DHT22;34745;52.276;10.528;2023-03-31T01:12:56;11.50;99.90
48936;DHT22;34745;52.276;10.528;2023-03-31T01:15:23;11.40;99.90
48936;DHT22;34745;52.276;10.528;2023-03-31T01:17:52;11.40;99.90
48936;DHT22;34745;52.276;10.528;2023-03-31T01:20:28;11.40;99.90
48936;DHT22;34745;52.276;10.528;2023-03-31T01:23:29;11.40;99.90
48936;DHT22;34745;52.276;10.528;2023-03-31T01:29:02;11.40;99.90
48936;DHT22;34745;52.276;10.528;2023-03-31T01:38:01;11.30;99.90
48936;DHT22;34745;52.276;10.528;2023-03-31T01:40:54;11.30;99.90
48936;DHT22;34745;52.276;10.528;2023-03-31T01:43:32;11.30;99.90
48936;DHT22;34745;52.276;10.528;2023-03-31T01:46:10;11.30;99.90
48936;DHT22;34745;52.276;10.528;2023-03-31T01:48:47;11.30;99.90
48936;DHT22;34745;52.276;10.528;2023-03-31T01:51:20;11.30;99.90
48936;DHT22;34745;52.276;10.528;2023-03-31T01:53:53;11.30;99.90
48936;DHT22;34745;52.276;10.528;2023-03-31T01:56:29;11.30;99.90
48936;DHT22;34745;52.276;10.528;2023-03-31T01:59:00;11.30;99.90
48936;DHT22;34745;52.276;10.528;2023-03-31T02:01:33;11.30;99.90
48936;DHT22;34745;52.276;10.528;2023-03-31T02:04:09;11.30;99.90
48936;DHT22;34745;52.276;10.528;2023-03-31T02:06:40;11.30;99.90
48936;DHT22;34745;52.276;10.528;2023-03-31T02:09:11;11.30;99.90
48936;DHT22;34745;52.276;10.528;2023-03-31T02:11:41;11.40;99.90
48936;DHT22;34745;52.276;10.528;2023-03-31T02:14:11;11.30;99.90
48936;DHT22;34745;52.276;10.528;2023-03-31T02:16:41;11.30;99.90
48936;DHT22;34745;52.276;10.528;2023-03-31T02:19:15;11.20;99.90
48936;DHT22;34745;52.276;10.528;2023-03-31T02:21:46;11.20;99.90
48936;DHT22;34745;52.276;10.528;2023-03-31T02:24:18;11.20;99.90
48936;DHT22;34745;52.276;10.528;2023-03-31T02:26:52;11.20;99.90
48936;DHT22;34745;52.276;10.528;2023-03-31T02:29:20;11.20;99.90
48936;DHT22;34745;52.276;10.528;2023-03-31T02:31:53;11.00;99.90
48936;DHT22;34745;52.276;10.528;2023-03-31T02:34:22;11.00;99.90
48936;DHT22;34745;52.276;10.528;2023-03-31T02:36:49;11.00;99.90
48936;DHT22;34745;52.276;10.528;2023-03-31T02:39:19;10.90;99.90
48936;DHT22;34745;52.276;10.528;2023-03-31T02:41:49;10.90;99.90
48936;DHT22;34745;52.276;10.528;2023-03-31T02:44:16;10.90;99.90
48936;DHT22;34745;52.276;10.528;2023-03-31T02:46:44;10.80;99.90
48936;DHT22;34745;52.276;10.528;2023-03-31T02:49:12;10.80;99.90
48936;DHT22;34745;52.276;10.528;2023-03-31T02:52:04;10.80;99.90
48936;DHT22;34745;52.276;10.528;2023-03-31T02:54:55;10.70;99.90
48936;DHT22;34745;52.276;10.528;2023-03-31T02:57:48;10.70;99.90
48936;DHT22;34745;52.276;10.528;2023-03-31T03:00:23;10.70;99.90
48936;DHT22;34745;52.276;10.528;2023-03-31T03:03:05;10.70;99.90
48936;DHT22;34745;52.276;10.528;2023-03-31T03:05:40;10.60;99.90
48936;DHT22;34745;52.276;10.528;2023-03-31T03:08:20;10.60;99.90
48936;DHT22;34745;52.276;10.528;2023-03-31T03:10:58;10.60;99.90
48936;DHT22;34745;52.276;10.528;2023-03-31T03:13:34;10.70;99.90
48936;DHT22;34745;52.276;10.528;2023-03-31T03:16:06;10.60;99.90
48936;DHT22;34745;52.276;10.528;2023-03-31T03:18:35;10.60;99.90
48936;DHT22;34745;52.276;10.528;2023-03-31T03:21:02;10.70;99.90
48936;DHT22;34745;52.276;10.528;2023-03-31T03:23:29;10.70;99.90
48936;DHT22;34745;52.276;10.528;2023-03-31T03:25:56;10.70;99.90
48936;DHT22;34745;52.276;10.528;2023-03-31T03:28:23;10.70;99.90
48936;DHT22;34745;52.276;10.528;2023-03-31T03:30:52;10.70;99.90
48936;DHT22;34745;52.276;10.528;2023-03-31T03:33:20;10.70;99.90
48936;DHT22;34745;52.276;10.528;2023-03-31T03:35:50;10.70;99.90
48936;DHT22;34745;52.276;10.528;2023-03-31T03:38:17;10.80;99.90
48936;DHT22;34745;52.276;10.528;2023-03-31T03:40:45;10.70;99.90
48936;DHT22;34745;52.276;10.528;2023-03-31T03:43:15;10.80;99.90
48936;DHT22;34745;52.276;10.528;2023-03-31T03:45:46;10.80;99.90
48936;DHT22;34745;52.276;10.528;2023-03-31T03:48:15;10.80;99.90
48936;DHT22;34745;52.276;10.528;2023-03-31T03:50:42;10.80;99.90
48936;DHT22;34745;52.276;10.528;2023-03-31T03:53:10;10.80;99.90
48936;DHT22;34745;52.276;10.528;2023-03-31T03:55:37;10.80;99.90
48936;DHT22;34745;52.276;10.528;2023-03-31T03:58:05;10.80;99.90
48936;DHT22;34745;52.276;10.528;2023-03-31T04:00:32;10.80;99.90
48936;DHT22;34745;52.276;10.528;2023-03-31T04:03:00;10.70;99.90
48936;DHT22;34745;52.276;10.528;2023-03-31T04:05:28;10.70;99.90
48936;DHT22;34745;52.276;10.528;2023-03-31T04:07:56;10.60;99.90
48936;DHT22;34745;52.276;10.528;2023-03-31T04:10:22;10.60;99.90
48936;DHT22;34745;52.276;10.528;2023-03-31T04:12:50;10.50;99.90
48936;DHT22;34745;52.276;10.528;2023-03-31T04:15:17;10.50;99.90
48936;DHT22;34745;52.276;10.528;2023-03-31T04:17:44;10.50;99.90
48936;DHT22;34745;52.276;10.528;2023-03-31T04:20:16;10.40;99.90
48936;DHT22;34745;52.276;10.528;2023-03-31T04:22:45;10.40;99.90
48936;DHT22;34745;52.276;10.528;2023-03-31T04:25:13;10.40;99.90
48936;DHT22;34745;52.276;10.528;2023-03-31T04:27:44;10.30;99.90
48936;DHT22;34745;52.276;10.528;2023-03-31T04:30:20;10.30;99.90
48936;DHT22;34745;52.276;10.528;2023-03-31T04:32:53;10.30;99.90
48936;DHT22;34745;52.276;10.528;2023-03-31T04:35:21;10.30;99.90
48936;DHT22;34745;52.276;10.528;2023-03-31T04:37:52;10.30;99.90
48936;DHT22;34745;52.276;10.528;2023-03-31T04:40:26;10.20;99.90
48936;DHT22;34745;52.276;10.528;2023-03-31T04:42:53;10.20;99.90
48936;DHT22;34745;52.276;10.528;2023-03-31T04:45:20;10.20;99.90
48936;DHT22;34745;52.276;10.528;2023-03-31T04:47:47;10.20;99.90
48936;DHT22;34745;52.276;10.528;2023-03-31T04:50:14;10.20;99.90
48936;DHT22;34745;52.276;10.528;2023-03-31T04:52:43;10.20;99.90
48936;DHT22;34745;52.276;10.528;2023-03-31T04:55:11;10.20;99.90
48936;DHT22;34745;52.276;10.528;2023-03-31T04:57:38;10.20;99.90
48936;DHT22;34745;52.276;10.528;2023-03-31T05:00:06;10.20;99.90
48936;DHT22;34745;52.276;10.528;2023-03-31T05:02:33;10.20;99.90
48936;DHT22;34745;52.276;10.528;2023-03-31T05:05:00;10.20;99.90
48936;DHT22;34745;52.276;10.528;2023-03-31T05:07:27;10.20;99.90
48936;DHT22;34745;52.276;10.528;2023-03-31T05:09:54;10.30;99.90
48936;DHT22;34745;52.276;10.528;2023-03-31T05:12:23;10.30;99.90
48936;DHT22;34745;52.276;10.528;2023-03-31T05:14:50;10.30;99.90
48936;DHT22;34745;52.276;10.528;2023-03-31T05:17:17;10.40;99.90
48936;DHT22;34745;52.276;10.528;2023-03-31T05:19:44;10.40;99.90
48936;DHT22;34745;52.276;10.528;2023-03-31T05:22:11;10.40;99.90
48936;DHT22;34745;52.276;10.528;2023-03-31T05:24:38;10.40;99.90
48936;DHT22;34745;52.276;10.528;2023-03-31T05:27:05;10.50;99.90
48936;DHT22;34745;52.276;10.528;2023-03-31T05:29:33;10.50;99.90
48936;DHT22;34745;52.276;10.528;2023-03-31T05:32:00;10.50;99.90
48936;DHT22;34745;52.276;10.528;2023-03-31T05:34:27;10.60;99.90
48936;DHT22;34745;52.276;10.528;2023-03-31T05:36:54;10.60;99.90
48936;DHT22;34745;52.276;10.528;2023-03-31T05:39:22;10.60;99.90
48936;DHT22;34745;52.276;10.528;2023-03-31T05:41:49;10.60;99.90
48936;DHT22;34745;52.276;10.528;2023-03-31T05:44:16;10.60;99.90
48936;DHT22;34745;52.276;10.528;2023-03-31T05:46:44;10.70;99.90
48936;DHT22;34745;52.276;10.528;2023-03-31T05:49:12;10.70;99.90
48936;DHT22;34745;52.276;10.528;2023-03-31T05:51:41;10.70;99.90
48936;DHT22;34745;52.276;10.528;2023-03-31T05:54:08;10.70;99.90
48936;DHT22;34745;52.276;10.528;2023-03-31T05:56:35;10.80;99.90
48936;DHT22;34745;52.276;10.528;2023-03-31T05:59:03;10.80;99.90
48936;DHT22;34745;52.276;10.528;2023-03-31T06:01:31;10.80;99.90
48936;DHT22;34745;52.276;10.528;2023-03-31T06:03:59;10.90;99.90
48936;DHT22;34745;52.276;10.528;2023-03-31T06:06:27;10.80;99.90
48936;DHT22;34745;52.276;10.528;2023-03-31T06:08:54;10.90;99.90
48936;DHT22;34745;52.276;10.528;2023-03-31T06:11:21;10.80;99.90
48936;DHT22;34745;52.276;10.528;2023-03-31T06:13:49;10.90;99.90
48936;DHT22;34745;52.276;10.528;2023-03-31T06:16:16;11.00;99.90
48936;DHT22;34745;52.276;10.528;2023-03-31T06:18:44;11.10;99.90
48936;DHT22;34745;52.276;10.528;2023-03-31T06:21:14;11.20;99.90
48936;DHT22;34745;52.276;10.528;2023-03-31T06:23:42;11.30;99.90
48936;DHT22;34745;52.276;10.528;2023-03-31T06:26:12;11.30;99.90
48936;DHT22;34745;52.276;10.528;2023-03-31T06:28:39;11.20;99.90
48936;DHT22;34745;52.276;10.528;2023-03-31T06:31:08;11.30;99.90
48936;DHT22;34745;52.276;10.528;2023-03-31T06:33:36;11.30;99.90
48936;DHT22;34745;52.276;10.528;2023-03-31T06:36:03;11.20;99.90
48936;DHT22;34745;52.276;10.528;2023-03-31T06:38:34;11.20;99.90
48936;DHT22;34745;52.276;10.528;2023-03-31T06:41:01;11.20;99.90
48936;DHT22;34745;52.276;10.528;2023-03-31T06:43:28;11.30;99.90
48936;DHT22;34745;52.276;10.528;2023-03-31T06:45:55;11.30;99.90
48936;DHT22;34745;52.276;10.528;2023-03-31T06:48:23;11.40;99.90
48936;DHT22;34745;52.276;10.528;2023-03-31T06:50:52;11.50;99.90
48936;DHT22;34745;52.276;10.528;2023-03-31T06:53:21;11.50;99.90
48936;DHT22;34745;52.276;10.528;2023-03-31T06:55:51;11.50;99.90
48936;DHT22;34745;52.276;10.528;2023-03-31T06:58:18;11.50;99.90
48936;DHT22;34745;52.276;10.528;2023-03-31T07:00:45;11.50;99.90
48936;DHT22;34745;52.276;10.528;2023-03-31T07:03:12;11.40;99.90
48936;DHT22;34745;52.276;10.528;2023-03-31T07:05:40;11.40;99.90
48936;DHT22;34745;52.276;10.528;2023-03-31T07:08:07;11.50;99.90
48936;DHT22;34745;52.276;10.528;2023-03-31T07:10:34;11.50;99.90
48936;DHT22;34745;52.276;10.528;2023-03-31T07:13:02;11.50;99.90
48936;DHT22;34745;52.276;10.528;2023-03-31T07:15:31;11.60;99.90
48936;DHT22;34745;52.276;10.528;2023-03-31T07:17:58;11.60;99.90
48936;DHT22;34745;52.276;10.528;2023-03-31T07:20:28;11.60;99.90
48936;DHT22;34745;52.276;10.528;2023-03-31T07:22:56;11.60;99.90
48936;DHT22;34745;52.276;10.528;2023-03-31T07:25:23;11.50;99.90
48936;DHT22;34745;52.276;10.528;2023-03-31T07:27:50;11.50;99.90
48936;DHT22;34745;52.276;10.528;2023-03-31T07:30:19;11.50;99.90
48936;DHT22;34745;52.276;10.528;2023-03-31T07:32:47;11.40;99.90
48936;DHT22;34745;52.276;10.528;2023-03-31T07:35:15;11.50;99.90
48936;DHT22;34745;52.276;10.528;2023-03-31T07:37:44;11.40;99.90
48936;DHT22;34745;52.276;10.528;2023-03-31T07:40:13;11.50;99.90
48936;DHT22;34745;52.276;10.528;2023-03-31T07:42:42;11.50;99.90
48936;DHT22;34745;52.276;10.528;2023-03-31T07:45:12;11.40;99.90
48936;DHT22;34745;52.276;10.528;2023-03-31T07:47:41;11.50;99.90
48936;DHT22;34745;52.276;10.528;2023-03-31T07:50:09;11.40;99.90
48936;DHT22;34745;52.276;10.528;2023-03-31T07:52:36;11.50;99.90
48936;DHT22;34745;52.276;10.528;2023-03-31T07:55:04;11.50;99.90
48936;DHT22;34745;52.276;10.528;2023-03-31T07:57:31;11.50;99.90
48936;DHT22;34745;52.276;10.528;2023-03-31T07:59:58;11.60;99.90
48936;DHT22;34745;52.276;10.528;2023-03-31T08:02:25;11.60;99.90
48936;DHT22;34745;52.276;10.528;2023-03-31T08:04:54;11.60;99.90
48936;DHT22;34745;52.276;10.528;2023-03-31T08:07:22;11.60;99.90
48936;DHT22;34745;52.276;10.528;2023-03-31T08:09:49;11.60;99.90
48936;DHT22;34745;52.276;10.528;2023-03-31T08:12:16;11.60;99.90
48936;DHT22;34745;52.276;10.528;2023-03-31T08:14:43;11.60;99.90
48936;DHT22;34745;52.276;10.528;2023-03-31T08:17:10;11.50;99.90
48936;DHT22;34745;52.276;10.528;2023-03-31T08:19:37;11.60;99.90
48936;DHT22;34745;52.276;10.528;2023-03-31T08:22:06;11.60;99.90
48936;DHT22;34745;52.276;10.528;2023-03-31T08:24:32;11.60;99.90
48936;DHT22;34745;52.276;10.528;2023-03-31T08:26:59;11.60;99.90
48936;DHT22;34745;52.276;10.528;2023-03-31T08:29:26;11.70;99.90
48936;DHT22;34745;52.276;10.528;2023-03-31T08:31:54;11.80;99.90
48936;DHT22;34745;52.276;10.528;2023-03-31T08:34:21;11.80;99.90
48936;DHT22;34745;52.276;10.528;2023-03-31T08:36:48;11.90;99.90
48936;DHT22;34745;52.276;10.528;2023-03-31T08:39:17;11.90;99.90
48936;DHT22;34745;52.276;10.528;2023-03-31T08:41:50;11.80;99.90
48936;DHT22;34745;52.276;10.528;2023-03-31T08:44:23;11.80;99.90
48936;DHT22;34745;52.276;10.528;2023-03-31T08:46:53;11.90;99.90
48936;DHT22;34745;52.276;10.528;2023-03-31T08:49:22;12.10;99.90
48936;DHT22;34745;52.276;10.528;2023-03-31T08:51:51;12.20;99.90
48936;DHT22;34745;52.276;10.528;2023-03-31T08:54:30;12.20;99.90
48936;DHT22;34745;52.276;10.528;2023-03-31T08:56:57;12.20;99.90
48936;DHT22;34745;52.276;10.528;2023-03-31T08:59:27;12.40;99.90
48936;DHT22;34745;52.276;10.528;2023-03-31T09:01:59;12.30;99.90
48936;DHT22;34745;52.276;10.528;2023-03-31T09:04:50;12.20;99.90
48936;DHT22;34745;52.276;10.528;2023-03-31T09:07:26;12.10;99.90
48936;DHT22;34745;52.276;10.528;2023-03-31T09:10:02;12.10;99.90
48936;DHT22;34745;52.276;10.528;2023-03-31T09:12:42;12.00;99.90
48936;DHT22;34745;52.276;10.528;2023-03-31T09:15:16;12.10;99.90
48936;DHT22;34745;52.276;10.528;2023-03-31T09:17:44;12.10;99.90
48936;DHT22;34745;52.276;10.528;2023-03-31T09:20:16;12.10;99.90
48936;DHT22;34745;52.276;10.528;2023-03-31T09:22:47;12.00;99.90
48936;DHT22;34745;52.276;10.528;2023-03-31T09:25:19;12.00;99.90
48936;DHT22;34745;52.276;10.528;2023-03-31T09:27:47;12.00;99.90
48936;DHT22;34745;52.276;10.528;2023-03-31T09:30:18;12.10;99.90
48936;DHT22;34745;52.276;10.528;2023-03-31T09:32:51;12.10;99.90
48936;DHT22;34745;52.276;10.528;2023-03-31T09:35:20;12.10;99.90
48936;DHT22;34745;52.276;10.528;2023-03-31T09:37:48;12.00;99.90
48936;DHT22;34745;52.276;10.528;2023-03-31T09:40:18;12.00;99.90
48936;DHT22;34745;52.276;10.528;2023-03-31T09:42:47;12.00;99.90
48936;DHT22;34745;52.276;10.528;2023-03-31T09:45:18;12.00;99.90
48936;DHT22;34745;52.276;10.528;2023-03-31T09:47:49;12.10;99.90
48936;DHT22;34745;52.276;10.528;2023-03-31T09:50:17;12.00;99.90
48936;DHT22;34745;52.276;10.528;2023-03-31T09:52:52;12.00;99.90
48936;DHT22;34745;52.276;10.528;2023-03-31T09:55:25;12.00;99.90
48936;DHT22;34745;52.276;10.528;2023-03-31T09:58:06;12.10;99.90
48936;DHT22;34745;52.276;10.528;2023-03-31T10:00:34;11.90;99.90
48936;DHT22;34745;52.276;10.528;2023-03-31T10:03:03;11.80;99.90
48936;DHT22;34745;52.276;10.528;2023-03-31T10:05:35;11.70;99.90
48936;DHT22;34745;52.276;10.528;2023-03-31T10:08:23;11.60;99.90
48936;DHT22;34745;52.276;10.528;2023-03-31T10:10:54;11.50;99.90
48936;DHT22;34745;52.276;10.528;2023-03-31T10:13:23;11.50;99.90
48936;DHT22;34745;52.276;10.528;2023-03-31T10:15:52;11.40;99.90
48936;DHT22;34745;52.276;10.528;2023-03-31T10:18:30;11.30;99.90
48936;DHT22;34745;52.276;10.528;2023-03-31T10:20:57;11.30;99.90
48936;DHT22;34745;52.276;10.528;2023-03-31T10:23:28;11.30;99.90
48936;DHT22;34745;52.276;10.528;2023-03-31T10:25:57;11.10;99.90
48936;DHT22;34745;52.276;10.528;2023-03-31T10:28:25;11.10;99.90
48936;DHT22;34745;52.276;10.528;2023-03-31T10:30:53;10.90;99.90
48936;DHT22;34745;52.276;10.528;2023-03-31T10:33:23;10.90;99.90
48936;DHT22;34745;52.276;10.528;2023-03-31T10:35:55;10.70;99.90
48936;DHT22;34745;52.276;10.528;2023-03-31T10:38:26;10.70;99.90
48936;DHT22;34745;52.276;10.528;2023-03-31T10:40:58;10.60;99.90
48936;DHT22;34745;52.276;10.528;2023-03-31T10:43:26;10.40;99.90
48936;DHT22;34745;52.276;10.528;2023-03-31T10:45:56;10.40;99.90
48936;DHT22;34745;52.276;10.528;2023-03-31T10:48:26;10.40;99.90
48936;DHT22;34745;52.276;10.528;2023-03-31T10:50:54;10.40;99.90
48936;DHT22;34745;52.276;10.528;2023-03-31T10:53:24;10.30;99.90
48936;DHT22;34745;52.276;10.528;2023-03-31T10:56:07;10.30;99.90
48936;DHT22;34745;52.276;10.528;2023-03-31T10:58:48;10.20;99.90
48936;DHT22;34745;52.276;10.528;2023-03-31T11:01:38;10.10;99.90
48936;DHT22;34745;52.276;10.528;2023-03-31T11:04:27;10.20;99.90
48936;DHT22;34745;52.276;10.528;2023-03-31T11:07:03;10.10;99.90
48936;DHT22;34745;52.276;10.528;2023-03-31T11:09:39;10.10;99.90
48936;DHT22;34745;52.276;10.528;2023-03-31T11:12:17;10.20;99.90
48936;DHT22;34745;52.276;10.528;2023-03-31T11:14:59;10.10;99.90
48936;DHT22;34745;52.276;10.528;2023-03-31T11:17:38;10.10;99.90
48936;DHT22;34745;52.276;10.528;2023-03-31T11:20:14;10.20;99.90
48936;DHT22;34745;52.276;10.528;2023-03-31T11:22:49;10.20;99.90
48936;DHT22;34745;52.276;10.528;2023-03-31T11:25:27;10.30;99.90
48936;DHT22;34745;52.276;10.528;2023-03-31T11:28:10;10.30;99.90
48936;DHT22;34745;52.276;10.528;2023-03-31T11:30:44;10.30;99.90
48936;DHT22;34745;52.276;10.528;2023-03-31T11:33:27;10.50;99.90
48936;DHT22;34745;52.276;10.528;2023-03-31T11:36:10;10.50;99.90
48936;DHT22;34745;52.276;10.528;2023-03-31T11:38:50;10.50;99.90
48936;DHT22;34745;52.276;10.528;2023-03-31T11:41:24;10.40;99.90
48936;DHT22;34745;52.276;10.528;2023-03-31T11:43:57;10.40;99.90
48936;DHT22;34745;52.276;10.528;2023-03-31T11:46:34;10.40;99.90
48936;DHT22;34745;52.276;10.528;2023-03-31T11:49:05;10.30;99.90
48936;DHT22;34745;52.276;10.528;2023-03-31T11:51:42;10.30;99.90
48936;DHT22;34745;52.276;10.528;2023-03-31T11:54:16;10.30;99.90
48936;DHT22;34745;52.276;10.528;2023-03-31T11:56:44;10.40;99.90
48936;DHT22;34745;52.276;10.528;2023-03-31T11:59:15;10.40;99.90
48936;DHT22;34745;52.276;10.528;2023-03-31T12:01:47;10.30;99.90
48936;DHT22;34745;52.276;10.528;2023-03-31T12:04:25;10.40;99.90
48936;DHT22;34745;52.276;10.528;2023-03-31T12:07:00;10.40;99.90
48936;DHT22;34745;52.276;10.528;2023-03-31T12:09:35;10.60;99.90
48936;DHT22;34745;52.276;10.528;2023-03-31T12:12:11;10.70;99.90
48936;DHT22;34745;52.276;10.528;2023-03-31T12:14:41;10.70;99.90
48936;DHT22;34745;52.276;10.528;2023-03-31T12:17:11;10.60;99.90
48936;DHT22;34745;52.276;10.528;2023-03-31T12:19:44;10.60;99.90
48936;DHT22;34745;52.276;10.528;2023-03-31T12:22:15;10.60;99.90
48936;DHT22;34745;52.276;10.528;2023-03-31T12:24:43;10.60;99.90
48936;DHT22;34745;52.276;10.528;2023-03-31T12:27:13;10.60;99.90
48936;DHT22;34745;52.276;10.528;2023-03-31T12:29:45;10.70;99.90
48936;DHT22;34745;52.276;10.528;2023-03-31T12:32:17;10.80;99.90
48936;DHT22;34745;52.276;10.528;2023-03-31T12:34:50;10.90;99.90
48936;DHT22;34745;52.276;10.528;2023-03-31T12:40:19;11.00;99.90
48936;DHT22;34745;52.276;10.528;2023-03-31T12:43:05;11.30;99.90
48936;DHT22;34745;52.276;10.528;2023-03-31T12:45:40;11.50;99.90
48936;DHT22;34745;52.276;10.528;2023-03-31T12:48:31;11.70;99.90
48936;DHT22;34745;52.276;10.528;2023-03-31T12:51:13;12.00;99.90
48936;DHT22;34745;52.276;10.528;2023-03-31T12:53:52;12.20;99.90
48936;DHT22;34745;52.276;10.528;2023-03-31T12:56:26;12.40;99.90
48936;DHT22;34745;52.276;10.528;2023-03-31T12:58:53;12.50;99.90
48936;DHT22;34745;52.276;10.528;2023-03-31T13:01:22;12.30;99.90
48936;DHT22;34745;52.276;10.528;2023-03-31T13:04:06;12.20;99.90
48936;DHT22;34745;52.276;10.528;2023-03-31T13:06:56;12.20;99.90
48936;DHT22;34745;52.276;10.528;2023-03-31T13:09:45;11.90;99.90
48936;DHT22;34745;52.276;10.528;2023-03-31T13:12:15;11.90;99.90
48936;DHT22;34745;52.276;10.528;2023-03-31T13:14:44;12.20;99.90
48936;DHT22;34745;52.276;10.528;2023-03-31T13:17:21;12.70;99.90
48936;DHT22;34745;52.276;10.528;2023-03-31T13:19:50;13.30;99.90
48936;DHT22;34745;52.276;10.528;2023-03-31T13:22:33;13.40;99.90
48936;DHT22;34745;52.276;10.528;2023-03-31T13:25:36;13.60;99.90
48936;DHT22;34745;52.276;10.528;2023-03-31T13:28:10;13.60;99.90
48936;DHT22;34745;52.276;10.528;2023-03-31T13:30:49;13.50;99.90
48936;DHT22;34745;52.276;10.528;2023-03-31T13:33:25;13.10;99.90
48936;DHT22;34745;52.276;10.528;2023-03-31T13:36:05;13.40;64.50
48936;DHT22;34745;52.276;10.528;2023-03-31T13:38:45;13.80;99.90
48936;DHT22;34745;52.276;10.528;2023-03-31T13:41:27;14.60;14.60
48936;DHT22;34745;52.276;10.528;2023-03-31T13:44:46;15.00;1.00
48936;DHT22;34745;52.276;10.528;2023-03-31T13:50:23;15.60;1.00
48936;DHT22;34745;52.276;10.528;2023-03-31T13:53:00;14.90;1.00
48936;DHT22;34745;52.276;10.528;2023-03-31T14:01:57;13.10;24.00
48936;DHT22;34745;52.276;10.528;2023-03-31T14:05:04;13.00;47.40
48936;DHT22;34745;52.276;10.528;2023-03-31T14:07:39;13.00;68.80
48936;DHT22;34745;52.276;10.528;2023-03-31T14:10:24;12.70;80.70
48936;DHT22;34745;52.276;10.528;2023-03-31T14:13:04;12.50;88.60
48936;DHT22;34745;52.276;10.528;2023-03-31T14:15:32;12.30;82.30
48936;DHT22;34745;52.276;10.528;2023-03-31T14:18:01;12.20;99.90
48936;DHT22;34745;52.276;10.528;2023-03-31T14:20:33;12.30;99.90
48936;DHT22;34745;52.276;10.528;2023-03-31T14:23:13;12.40;99.90
48936;DHT22;34745;52.276;10.528;2023-03-31T14:25:49;12.50;99.90
48936;DHT22;34745;52.276;10.528;2023-03-31T14:28:37;12.60;45.30
48936;DHT22;34745;52.276;10.528;2023-03-31T14:31:18;12.80;47.90
48936;DHT22;34745;52.276;10.528;2023-03-31T14:34:03;13.00;13.40
48936;DHT22;34745;52.276;10.528;2023-03-31T14:36:37;13.40;1.00
48936;DHT22;34745;52.276;10.528;2023-03-31T14:39:10;13.60;1.00
48936;DHT22;34745;52.276;10.528;2023-03-31T14:41:37;13.70;1.00
48936;DHT22;34745;52.276;10.528;2023-03-31T14:44:06;13.70;1.00
48936;DHT22;34745;52.276;10.528;2023-03-31T14:46:37;14.00;1.00
48936;DHT22;34745;52.276;10.528;2023-03-31T14:49:18;13.80;1.00
48936;DHT22;34745;52.276;10.528;2023-03-31T14:51:46;13.90;1.00
48936;DHT22;34745;52.276;10.528;2023-03-31T14:54:17;14.10;1.00
48936;DHT22;34745;52.276;10.528;2023-03-31T14:56:45;14.20;1.00
48936;DHT22;34745;52.276;10.528;2023-03-31T14:59:19;13.70;1.00
48936;DHT22;34745;52.276;10.528;2023-03-31T15:01:48;13.70;1.00
48936;DHT22;34745;52.276;10.528;2023-03-31T15:04:19;13.80;1.00
48936;DHT22;34745;52.276;10.528;2023-03-31T15:07:01;14.80;1.00
48936;DHT22;34745;52.276;10.528;2023-03-31T15:09:34;16.00;1.00
48936;DHT22;34745;52.276;10.528;2023-03-31T15:12:03;16.50;1.00
48936;DHT22;34745;52.276;10.528;2023-03-31T15:14:34;17.20;1.00
48936;DHT22;34745;52.276;10.528;2023-03-31T15:17:02;17.50;1.00
48936;DHT22;34745;52.276;10.528;2023-03-31T15:19:33;16.80;1.00
48936;DHT22;34745;52.276;10.528;2023-03-31T15:22:04;16.10;1.00
48936;DHT22;34745;52.276;10.528;2023-03-31T15:24:36;15.30;1.00
48936;DHT22;34745;52.276;10.528;2023-03-31T15:27:06;14.60;1.00
48936;DHT22;34745;52.276;10.528;2023-03-31T15:29:36;13.70;1.00
48936;DHT22;34745;52.276;10.528;2023-03-31T15:32:07;13.40;1.00
48936;DHT22;34745;52.276;10.528;2023-03-31T15:34:37;13.10;1.00
48936;DHT22;34745;52.276;10.528;2023-03-31T15:37:06;12.90;1.00
48936;DHT22;34745;52.276;10.528;2023-03-31T15:39:36;12.70;1.00
48936;DHT22;34745;52.276;10.528;2023-03-31T15:42:04;12.70;1.00
48936;DHT22;34745;52.276;10.528;2023-03-31T15:44:37;12.80;1.00
48936;DHT22;34745;52.276;10.528;2023-03-31T15:47:10;12.60;1.00
48936;DHT22;34745;52.276;10.528;2023-03-31T15:49:46;12.60;10.10
48936;DHT22;34745;52.276;10.528;2023-03-31T15:52:20;12.70;8.00
48936;DHT22;34745;52.276;10.528;2023-03-31T15:54:48;12.70;11.10
48936;DHT22;34745;52.276;10.528;2023-03-31T15:57:16;12.70;10.40
48936;DHT22;34745;52.276;10.528;2023-03-31T15:59:46;12.70;15.60
48936;DHT22;34745;52.276;10.528;2023-03-31T16:02:23;12.80;17.30
48936;DHT22;34745;52.276;10.528;2023-03-31T16:04:54;12.90;15.20
48936;DHT22;34745;52.276;10.528;2023-03-31T16:07:24;12.90;1.00
48936;DHT22;34745;52.276;10.528;2023-03-31T16:09:58;13.00;1.00
48936;DHT22;34745;52.276;10.528;2023-03-31T16:12:29;13.00;1.00